createdAt,value
2019-05-20T00:02:23.512Z,93580.27
2019-05-20T00:04:45.844Z,93576.70
2019-05-20T00:07:14.533Z,93579.00
2019-05-20T00:09:43.249Z,93570.03
2019-05-20T00:12:11.947Z,93580.63
2019-05-20T00:14:40.663Z,93584.98
2019-05-20T00:17:09.335Z,93598.36
2019-05-20T00:19:40.992Z,93588.35
2019-05-20T00:22:09.677Z,93573.88
2019-05-20T00:24:38.341Z,93580.47
2019-05-20T00:27:07.018Z,93579.92
2019-05-20T00:29:35.736Z,93594.88
2019-05-20T00:32:04.407Z,93598.69
2019-05-20T00:34:35.504Z,93592.95
2019-05-20T00:37:03.478Z,93587.21
2019-05-20T00:39:32.161Z,93606.54
2019-05-20T00:42:03.609Z,93603.72
2019-05-20T00:44:32.277Z,93599.41
2019-05-20T00:47:00.951Z,93586.94
2019-05-20T00:49:29.632Z,93609.77
2019-05-20T00:51:58.297Z,93621.64
2019-05-20T00:54:27.025Z,93609.00
2019-05-20T00:56:55.660Z,93605.20
2019-05-20T00:59:24.335Z,93615.77
2019-05-20T01:01:53.065Z,93607.00
2019-05-20T01:04:21.765Z,93609.52
2019-05-20T01:06:50.449Z,93631.95
2019-05-20T01:09:19.162Z,93633.31
2019-05-20T01:11:47.834Z,93615.44
2019-05-20T01:14:15.210Z,93612.08
2019-05-20T01:16:43.914Z,93613.30
2019-05-20T01:19:12.564Z,93617.73
2019-05-20T01:21:41.242Z,93619.61
2019-05-20T01:24:09.912Z,93632.70
2019-05-20T01:26:38.592Z,93630.89
2019-05-20T01:29:07.259Z,93630.90
2019-05-20T01:31:36.012Z,93634.01
2019-05-20T01:34:04.675Z,93609.00
2019-05-20T01:36:33.369Z,93647.09
2019-05-20T01:39:02.129Z,93622.55
2019-05-20T01:41:30.797Z,93631.05
2019-05-20T01:43:59.473Z,93623.22
2019-05-20T01:46:28.141Z,93613.53
2019-05-20T01:48:56.817Z,93612.27
2019-05-20T01:51:25.479Z,93620.87
2019-05-20T01:53:54.152Z,93622.74
2019-05-20T01:56:22.831Z,93626.56
2019-05-20T01:58:51.513Z,93638.06
2019-05-20T02:01:20.206Z,93619.80
2019-05-20T02:03:48.992Z,93618.44
2019-05-20T02:06:17.683Z,93631.26
2019-05-20T02:08:47.447Z,93618.98
2019-05-20T02:11:16.119Z,93616.64
2019-05-20T02:13:55.572Z,93626.15
2019-05-20T02:16:25.922Z,93616.75
2019-05-20T02:18:54.690Z,93614.05
2019-05-20T02:21:23.461Z,93611.31
2019-05-20T02:23:52.130Z,93611.67
2019-05-20T02:26:20.807Z,93614.30
2019-05-20T02:28:49.485Z,93613.77
2019-05-20T02:31:18.161Z,93610.80
2019-05-20T02:33:52.228Z,93604.83
2019-05-20T02:36:17.234Z,93602.80
2019-05-20T02:38:46.013Z,93611.42
2019-05-20T02:41:14.682Z,93614.37
2019-05-20T02:43:43.442Z,93627.13
2019-05-20T02:46:12.123Z,93625.40
2019-05-20T02:48:41.301Z,93614.19
2019-05-20T02:51:09.987Z,93608.78
2019-05-20T02:53:38.666Z,93611.20
2019-05-20T02:56:07.331Z,93619.63
2019-05-20T02:58:36.010Z,93618.91
2019-05-20T03:01:04.990Z,93631.59
2019-05-20T03:03:33.650Z,93630.66
2019-05-20T03:06:02.328Z,93620.28
2019-05-20T03:08:30.997Z,93629.36
2019-05-20T03:11:00.848Z,93632.72
2019-05-20T03:13:29.511Z,93633.55
2019-05-20T03:15:58.188Z,93632.45
2019-05-20T03:18:26.855Z,93638.33
2019-05-20T03:20:55.544Z,93642.84
2019-05-20T03:23:24.204Z,93637.36
2019-05-20T03:25:53.087Z,93644.09
2019-05-20T03:28:21.777Z,93639.39
2019-05-20T03:30:50.457Z,93634.13
2019-05-20T03:33:19.133Z,93635.45
2019-05-20T03:35:47.783Z,93633.92
2019-05-20T03:38:16.467Z,93637.42
2019-05-20T03:40:45.146Z,93641.67
2019-05-20T03:43:13.820Z,93647.25
2019-05-20T03:45:42.710Z,93653.66
2019-05-20T03:48:11.474Z,93657.50
2019-05-20T03:50:40.132Z,93657.20
2019-05-20T03:53:08.796Z,93669.94
2019-05-20T03:55:38.475Z,93666.16
2019-05-20T03:58:07.143Z,93677.17
2019-05-20T04:00:48.533Z,93679.28
2019-05-20T04:03:17.400Z,93683.60
2019-05-20T04:05:46.268Z,93683.97
2019-05-20T04:08:15.066Z,93685.06
2019-05-20T04:10:43.711Z,93677.56
2019-05-20T04:13:12.389Z,93675.35
2019-05-20T04:15:42.125Z,93682.27
2019-05-20T04:18:10.801Z,93679.08
2019-05-20T04:20:39.598Z,93684.69
2019-05-20T04:23:08.413Z,93687.48
2019-05-20T04:25:37.061Z,93685.78
2019-05-20T04:28:05.851Z,93686.07
2019-05-20T04:30:34.556Z,93688.15
2019-05-20T04:33:03.239Z,93684.44
2019-05-20T04:35:31.904Z,93684.74
2019-05-20T04:38:01.809Z,93688.78
2019-05-20T04:40:30.471Z,93683.95
2019-05-20T04:42:59.262Z,93680.57
2019-05-20T04:45:27.927Z,93689.59
2019-05-20T04:47:56.592Z,93692.24
2019-05-20T04:50:26.725Z,93694.55
2019-05-20T04:52:56.017Z,93693.20
2019-05-20T04:55:24.678Z,93690.21
2019-05-20T04:57:53.356Z,93684.94
2019-05-20T05:00:49.016Z,93678.94
2019-05-20T05:03:17.803Z,93683.48
2019-05-20T05:05:46.617Z,93686.11
2019-05-20T05:08:15.378Z,93685.95
2019-05-20T05:10:44.112Z,93681.53
2019-05-20T05:13:12.898Z,93684.17
2019-05-20T05:15:41.612Z,93688.84
2019-05-20T05:18:10.302Z,93688.84
2019-05-20T05:20:47.157Z,93689.10
2019-05-20T05:23:16.311Z,93685.45
2019-05-20T05:25:46.101Z,93679.97
2019-05-20T05:28:15.512Z,93680.88
2019-05-20T05:30:46.185Z,93684.79
2019-05-20T05:33:14.841Z,93680.88
2019-05-20T05:35:52.691Z,93683.37
2019-05-20T05:38:14.047Z,93686.14
2019-05-20T05:40:42.749Z,93672.23
2019-05-20T05:43:11.436Z,93690.81
2019-05-20T05:45:40.192Z,93692.91
2019-05-20T05:48:08.945Z,93692.02
2019-05-20T05:50:37.920Z,93692.05
2019-05-20T05:53:06.620Z,93684.73
2019-05-20T05:55:35.285Z,93687.45
2019-05-20T05:58:03.972Z,93689.41
2019-05-20T06:00:32.760Z,93696.87
2019-05-20T06:03:01.563Z,93682.45
2019-05-20T06:05:31.785Z,93706.52
2019-05-20T06:08:00.644Z,93703.40
2019-05-20T06:10:29.460Z,93709.30
2019-05-20T06:12:58.168Z,93704.53
2019-05-20T06:15:27.086Z,93700.22
2019-05-20T06:18:13.395Z,93703.98
2019-05-20T06:20:43.732Z,93710.84
2019-05-20T06:23:12.432Z,93709.61
2019-05-20T06:25:41.121Z,93713.50
2019-05-20T06:28:09.804Z,93705.72
2019-05-20T06:30:41.327Z,93667.87
2019-05-20T06:33:10.035Z,93701.99
2019-05-20T06:35:38.832Z,93701.11
2019-05-20T06:38:12.210Z,93696.88
2019-05-20T06:40:40.902Z,93698.52
2019-05-20T06:43:09.578Z,93704.56
2019-05-20T06:45:38.370Z,93704.70
2019-05-20T06:48:07.135Z,93700.73
2019-05-20T06:50:35.926Z,93696.61
2019-05-20T06:53:04.756Z,93690.45
2019-05-20T06:55:33.497Z,93691.58
2019-05-20T06:58:02.262Z,93692.33
2019-05-20T07:00:39.334Z,93708.97
2019-05-20T07:03:08.095Z,93711.21
2019-05-20T07:05:36.875Z,93714.53
2019-05-20T07:08:05.754Z,93712.85
2019-05-20T07:10:34.554Z,93717.12
2019-05-20T07:13:03.359Z,93712.74
2019-05-20T07:15:32.023Z,93715.64
2019-05-20T07:18:00.718Z,93715.68
2019-05-20T07:20:29.416Z,93712.16
2019-05-20T07:22:58.750Z,93715.06
2019-05-20T07:25:29.146Z,93714.23
2019-05-20T07:27:57.980Z,93711.94
2019-05-20T07:30:26.681Z,93711.83
2019-05-20T07:32:55.543Z,93711.41
2019-05-20T07:35:30.183Z,93709.97
2019-05-20T07:37:55.268Z,93705.48
2019-05-20T07:40:31.329Z,93699.13
2019-05-20T07:43:00.080Z,93703.50
2019-05-20T07:45:31.419Z,93700.95
2019-05-20T07:48:00.516Z,93711.70
2019-05-20T07:50:29.978Z,93707.53
2019-05-20T07:53:00.514Z,93712.33
2019-05-20T07:55:32.605Z,93712.71
2019-05-20T07:58:04.595Z,93714.03
2019-05-20T08:00:36.558Z,93705.69
2019-05-20T08:03:05.869Z,93713.05
2019-05-20T08:05:34.630Z,93716.48
2019-05-20T08:08:03.341Z,93708.94
2019-05-20T08:10:32.711Z,93714.38
2019-05-20T08:13:01.402Z,93714.42
2019-05-20T08:15:30.132Z,93710.38
2019-05-20T08:17:58.864Z,93702.28
2019-05-20T08:20:28.024Z,93702.48
2019-05-20T08:22:57.056Z,93710.27
2019-05-20T08:25:25.857Z,93711.78
2019-05-20T08:27:54.601Z,93715.16
2019-05-20T08:30:34.819Z,93719.41
2019-05-20T08:33:04.008Z,93728.74
2019-05-20T08:35:32.695Z,93718.47
2019-05-20T08:38:01.472Z,93714.94
2019-05-20T08:40:30.157Z,93719.78
2019-05-20T08:42:58.932Z,93723.50
2019-05-20T08:45:27.650Z,93724.16
2019-05-20T08:47:56.369Z,93723.33
2019-05-20T08:53:41.801Z,93720.12
2019-05-20T08:56:10.631Z,93718.26
2019-05-20T08:58:39.355Z,93714.67
2019-05-20T09:01:10.074Z,93711.04
2019-05-20T09:03:39.204Z,93716.16
2019-05-20T09:06:07.991Z,93718.95
2019-05-20T09:08:36.741Z,93713.75
2019-05-20T09:11:05.457Z,93717.45
2019-05-20T09:13:34.193Z,93720.11
2019-05-20T09:16:02.959Z,93725.45
2019-05-20T09:18:31.663Z,93707.52
2019-05-20T09:21:00.372Z,93721.09
2019-05-20T09:23:29.118Z,93726.03
2019-05-20T09:25:57.822Z,93727.11
2019-05-20T09:28:26.675Z,93723.93
2019-05-20T09:30:55.608Z,93707.09
2019-05-20T09:33:25.346Z,93717.53
2019-05-20T09:35:54.248Z,93708.56
2019-05-20T09:38:22.961Z,93709.83
2019-05-20T09:40:51.693Z,93707.89
2019-05-20T09:43:20.355Z,93707.73
2019-05-20T09:46:05.629Z,93700.83
2019-05-20T09:48:19.624Z,93695.11
2019-05-20T09:50:48.362Z,93699.99
2019-05-20T09:53:17.329Z,93693.47
2019-05-20T09:55:46.026Z,93688.83
2019-05-20T09:58:14.984Z,93680.28
2019-05-20T10:00:44.017Z,93677.92
2019-05-20T10:03:12.774Z,93676.23
2019-05-20T10:05:42.161Z,93672.72
2019-05-20T10:08:11.058Z,93671.23
2019-05-20T10:10:39.912Z,93663.45
2019-05-20T10:13:09.265Z,93668.74
2019-05-20T10:15:38.605Z,93665.17
2019-05-20T10:18:07.363Z,93668.17
2019-05-20T10:20:36.090Z,93666.97
2019-05-20T10:23:05.395Z,93661.03
2019-05-20T10:25:34.176Z,93656.47
2019-05-20T10:28:03.189Z,93657.81
2019-05-20T10:30:32.245Z,93656.18
2019-05-20T10:33:01.508Z,93653.27
2019-05-20T10:35:30.900Z,93658.94
2019-05-20T10:37:59.610Z,93656.08
2019-05-20T10:40:27.495Z,93662.33
2019-05-20T10:42:56.171Z,93663.93
2019-05-20T10:45:25.141Z,93667.20
2019-05-20T10:50:49.622Z,93664.86
2019-05-20T10:53:18.338Z,93664.36
2019-05-20T10:55:47.170Z,93666.45
2019-05-20T10:58:16.242Z,93666.89
2019-05-20T11:01:01.134Z,93675.20
2019-05-20T11:03:16.132Z,93679.14
2019-05-20T11:05:44.838Z,93668.63
2019-05-20T11:08:13.615Z,93665.93
2019-05-20T11:10:46.399Z,93666.34
2019-05-20T11:13:15.226Z,93661.88
2019-05-20T11:15:44.323Z,93668.22
2019-05-20T11:18:13.092Z,93663.34
2019-05-20T11:20:41.881Z,93654.73
2019-05-20T11:23:10.671Z,93680.48
2019-05-20T11:25:39.457Z,93687.23
2019-05-20T11:28:11.848Z,93678.69
2019-05-20T11:30:38.857Z,93678.62
2019-05-20T11:33:07.684Z,93682.11
2019-05-20T11:35:36.404Z,93671.95
2019-05-20T11:38:05.327Z,93672.81
2019-05-20T11:40:34.076Z,93645.52
2019-05-20T11:43:02.986Z,93685.74
2019-05-20T11:45:38.560Z,93668.27
2019-05-20T11:48:07.396Z,93657.97
2019-05-20T11:50:36.064Z,93657.88
2019-05-20T11:53:04.776Z,93655.27
2019-05-20T11:55:33.477Z,93668.88
2019-05-20T11:58:15.156Z,93664.12
2019-05-20T12:00:32.833Z,93651.28
2019-05-20T12:03:01.537Z,93670.83
2019-05-20T12:05:30.444Z,93668.76
2019-05-20T12:10:42.723Z,93668.47
2019-05-20T12:13:11.643Z,93663.98
2019-05-20T12:15:40.378Z,93663.28
2019-05-20T12:18:55.258Z,93667.01
2019-05-20T12:21:23.975Z,93669.20
2019-05-20T12:23:52.769Z,93668.38
2019-05-20T12:26:22.798Z,93677.28
2019-05-20T12:28:51.775Z,93675.42
2019-05-20T12:31:20.853Z,93680.72
2019-05-20T12:33:51.052Z,93688.08
2019-05-20T12:36:20.113Z,93694.35
2019-05-20T12:38:48.855Z,93695.82
2019-05-20T12:41:17.735Z,93698.95
2019-05-20T12:43:46.448Z,93711.40
2019-05-20T12:46:15.132Z,93715.89
2019-05-20T12:48:43.917Z,93730.20
2019-05-20T12:51:14.692Z,93734.98
2019-05-20T12:53:43.021Z,93737.81
2019-05-20T12:56:11.776Z,93743.43
2019-05-20T12:58:40.487Z,93741.64
2019-05-20T13:01:09.216Z,93737.19
2019-05-20T13:03:37.894Z,93746.95
2019-05-20T13:06:06.607Z,93751.97
2019-05-20T13:08:35.277Z,93757.99
2019-05-20T13:11:03.958Z,93770.87
2019-05-20T13:13:32.780Z,93768.23
2019-05-20T13:16:01.474Z,93770.67
2019-05-20T13:18:30.238Z,93774.42
2019-05-20T13:20:58.977Z,93788.27
2019-05-20T13:23:27.720Z,93803.05
2019-05-20T13:26:05.774Z,93801.12
2019-05-20T13:28:34.481Z,93808.79
2019-05-20T13:31:03.174Z,93813.50
2019-05-20T13:33:31.872Z,93812.84
2019-05-20T13:36:00.750Z,93815.01
2019-05-20T13:38:29.529Z,93801.80
2019-05-20T13:40:58.377Z,93770.19
2019-05-20T13:43:29.263Z,93787.23
2019-05-20T13:45:57.671Z,93791.05
2019-05-20T13:48:26.432Z,93800.73
2019-05-20T13:50:55.194Z,93806.88
2019-05-20T13:53:44.849Z,93804.06
2019-05-20T13:56:14.202Z,93786.61
2019-05-20T13:58:43.059Z,93790.55
2019-05-20T14:01:11.740Z,93801.61
2019-05-20T14:03:40.848Z,93798.52
2019-05-20T14:06:09.623Z,93781.65
2019-05-20T14:08:38.317Z,93800.59
2019-05-20T14:11:07.169Z,93799.83
2019-05-20T14:13:36.054Z,93812.14
2019-05-20T14:16:50.081Z,93812.54
2019-05-20T14:19:22.373Z,93817.97
2019-05-20T14:21:49.364Z,93814.30
2019-05-20T14:24:34.801Z,93806.52
2019-05-20T14:27:03.567Z,93806.92
2019-05-20T14:29:32.322Z,93800.33
2019-05-20T14:32:01.373Z,93811.60
2019-05-20T14:34:30.315Z,93818.28
2019-05-20T14:36:57.849Z,93818.88
2019-05-20T14:39:26.636Z,93815.89
2019-05-20T14:41:55.335Z,93815.59
2019-05-20T14:44:24.009Z,93813.66
2019-05-20T14:46:52.711Z,93831.43
2019-05-20T14:49:21.389Z,93834.66
2019-05-20T14:51:50.136Z,93836.81
2019-05-20T14:54:18.877Z,93845.66
2019-05-20T14:56:47.696Z,93841.69
2019-05-20T14:59:16.376Z,93841.69
2019-05-20T15:01:45.085Z,93848.02
2019-05-20T15:04:13.753Z,93859.03
2019-05-20T15:06:42.907Z,93840.66
2019-05-20T15:09:11.632Z,93856.73
2019-05-20T15:11:40.321Z,93851.69
2019-05-20T15:14:09.004Z,93842.56
2019-05-20T15:16:37.701Z,93849.85
2019-05-20T15:19:06.379Z,93849.41
2019-05-20T15:21:35.062Z,93845.55
2019-05-20T15:24:03.874Z,93823.12
2019-05-20T15:26:32.558Z,93827.35
2019-05-20T15:29:01.230Z,93826.78
2019-05-20T15:31:29.904Z,93817.11
2019-05-20T15:33:58.600Z,93813.05
2019-05-20T15:36:27.289Z,93807.53
2019-05-20T15:38:56.216Z,93807.27
2019-05-20T15:41:24.941Z,93818.88
2019-05-20T15:43:53.695Z,93810.51
2019-05-20T15:46:22.380Z,93804.08
2019-05-20T15:48:51.050Z,93800.94
2019-05-20T15:51:19.724Z,93779.88
2019-05-20T15:53:48.385Z,93793.67
2019-05-20T15:56:17.243Z,93799.29
2019-05-20T15:58:45.909Z,93814.92
2019-05-20T16:01:16.708Z,93802.88
2019-05-20T16:03:45.415Z,93790.11
2019-05-20T16:06:14.136Z,93775.92
2019-05-20T16:08:42.833Z,93795.46
2019-05-20T16:11:10.297Z,93806.96
2019-05-20T16:13:38.966Z,93789.56
2019-05-20T16:16:07.673Z,93801.97
2019-05-20T16:18:36.390Z,93796.12
2019-05-20T16:21:05.079Z,93798.23
2019-05-20T16:23:33.926Z,93796.23
2019-05-20T16:26:02.626Z,93810.79
2019-05-20T16:28:31.364Z,93817.64
2019-05-20T16:31:03.868Z,93818.99
2019-05-20T16:33:32.590Z,93808.17
2019-05-20T16:36:01.567Z,93817.82
2019-05-20T16:38:30.294Z,93796.98
2019-05-20T16:40:58.989Z,93821.23
2019-05-20T16:43:27.646Z,93825.81
2019-05-20T16:45:56.337Z,93829.92
2019-05-20T16:48:25.062Z,93823.09
2019-05-20T16:50:53.775Z,93830.02
2019-05-20T16:53:22.466Z,93844.16
2019-05-20T16:55:51.142Z,93831.77
2019-05-20T16:58:19.881Z,93831.53
2019-05-20T17:00:48.589Z,93836.55
2019-05-20T17:03:17.293Z,93843.42
2019-05-20T17:05:46.199Z,93838.32
2019-05-20T17:08:14.904Z,93849.13
2019-05-20T17:10:43.612Z,93839.89
2019-05-20T17:13:12.377Z,93839.25
2019-05-20T17:15:41.047Z,93841.48
2019-05-20T17:18:09.866Z,93845.13
2019-05-20T17:20:39.441Z,93855.28
2019-05-20T17:23:08.159Z,93852.00
2019-05-20T17:25:37.560Z,93860.80
2019-05-20T17:28:06.482Z,93861.17
2019-05-20T17:30:45.023Z,93858.22
2019-05-20T17:33:05.561Z,93871.44
2019-05-20T17:35:34.345Z,93871.34
2019-05-20T17:38:03.041Z,93875.17
2019-05-20T17:40:31.781Z,93874.56
2019-05-20T17:43:00.485Z,93875.89
2019-05-20T17:45:29.126Z,93869.19
2019-05-20T17:47:57.842Z,93860.34
2019-05-20T17:50:26.531Z,93866.44
2019-05-20T17:52:55.228Z,93861.83
2019-05-20T17:55:24.156Z,93869.70
2019-05-20T17:57:53.354Z,93866.67
2019-05-20T18:00:23.811Z,93859.16
2019-05-20T18:02:53.029Z,93856.44
2019-05-20T18:05:21.732Z,93855.01
2019-05-20T18:07:50.552Z,93856.47
2019-05-20T18:10:20.850Z,93860.90
2019-05-20T18:12:49.574Z,93862.73
2019-05-20T18:15:18.929Z,93877.83
2019-05-20T18:17:47.709Z,93874.38
2019-05-20T18:20:16.728Z,93873.42
2019-05-20T18:22:45.422Z,93863.27
2019-05-20T18:25:16.303Z,93865.52
2019-05-20T18:27:44.960Z,93876.93
2019-05-20T18:30:14.762Z,93874.08
2019-05-20T18:32:43.529Z,93876.67
2019-05-20T18:35:12.314Z,93884.06
2019-05-20T18:37:41.079Z,93878.58
2019-05-20T18:40:14.269Z,93880.52
2019-05-20T18:42:40.592Z,93885.67
2019-05-20T18:45:09.669Z,93895.59
2019-05-20T18:47:38.338Z,93893.58
2019-05-20T18:50:08.015Z,93897.67
2019-05-20T18:52:36.788Z,93894.00
2019-05-20T18:55:06.567Z,93888.23
2019-05-20T18:57:35.250Z,93894.45
2019-05-20T19:00:05.554Z,93902.97
2019-05-20T19:02:34.348Z,93906.47
2019-05-20T19:05:03.209Z,93902.45
2019-05-20T19:07:31.895Z,93900.57
2019-05-20T19:10:00.597Z,93894.66
2019-05-20T19:12:29.274Z,93898.01
2019-05-20T19:14:58.191Z,93899.39
2019-05-20T19:17:26.906Z,93901.28
2019-05-20T19:19:55.577Z,93919.56
2019-05-20T19:22:24.253Z,93928.33
2019-05-20T19:24:52.938Z,93920.00
2019-05-20T19:27:21.631Z,93913.34
2019-05-20T19:29:50.337Z,93918.83
2019-05-20T19:32:20.617Z,93929.88
2019-05-20T19:34:49.319Z,93929.65
2019-05-20T19:37:18.326Z,93938.81
2019-05-20T19:39:47.009Z,93935.45
2019-05-20T19:42:15.768Z,93935.78
2019-05-20T19:44:44.506Z,93928.83
2019-05-20T19:47:13.211Z,93915.45
2019-05-20T19:49:42.713Z,93922.62
2019-05-20T19:52:11.728Z,93929.37
2019-05-20T19:54:40.413Z,93928.54
2019-05-20T19:57:09.091Z,93917.89
2019-05-20T19:59:37.984Z,93918.42
2019-05-20T20:02:16.858Z,93915.58
2019-05-20T20:04:37.167Z,93924.86
2019-05-20T20:07:05.848Z,93923.80
2019-05-20T20:09:34.564Z,93925.13
2019-05-20T20:12:03.223Z,93927.45
2019-05-20T20:14:31.943Z,93927.67
2019-05-20T20:17:00.610Z,93933.95
2019-05-20T20:19:29.296Z,93930.55
2019-05-20T20:21:58.094Z,93920.63
2019-05-20T20:24:26.889Z,93927.17
2019-05-20T20:26:55.570Z,93935.06
2019-05-20T20:29:24.260Z,93939.88
2019-05-20T20:31:52.923Z,93936.42
2019-05-20T20:34:21.615Z,93929.37
2019-05-20T20:36:50.301Z,93932.94
2019-05-20T20:39:18.976Z,93944.11
2019-05-20T20:41:47.693Z,93936.19
2019-05-20T20:44:16.607Z,93940.34
2019-05-20T20:46:46.268Z,93942.88
2019-05-20T20:49:15.344Z,93947.83
2019-05-20T20:51:44.161Z,93967.66
2019-05-20T20:54:12.860Z,93973.58
2019-05-20T20:56:41.621Z,93977.95
2019-05-20T20:59:10.330Z,93972.83
2019-05-20T21:01:39.042Z,93970.01
2019-05-20T21:04:07.753Z,93968.47
2019-05-20T21:06:36.644Z,93970.36
2019-05-20T21:09:06.638Z,93969.73
2019-05-20T21:11:35.380Z,93976.30
2019-05-20T21:14:04.167Z,93981.70
2019-05-20T21:16:32.967Z,93985.75
2019-05-20T21:19:01.717Z,93985.47
2019-05-20T21:21:30.476Z,93982.59
2019-05-20T21:23:59.291Z,93982.78
2019-05-20T21:26:28.006Z,93984.07
2019-05-20T21:28:56.721Z,93984.59
2019-05-20T21:31:25.538Z,93979.01
2019-05-20T21:33:54.243Z,93968.25
2019-05-20T21:36:22.986Z,93969.73
2019-05-20T21:38:51.704Z,93975.48
2019-05-20T21:41:20.435Z,93990.61
2019-05-20T21:43:49.156Z,93989.36
2019-05-20T21:46:17.885Z,93976.91
2019-05-20T21:48:46.595Z,93964.53
2019-05-20T21:51:15.461Z,93976.03
2019-05-20T21:53:44.140Z,93968.00
2019-05-20T21:56:12.807Z,93967.19
2019-05-20T21:58:41.494Z,93976.03
2019-05-20T22:01:10.275Z,93980.48
2019-05-20T22:03:38.945Z,93987.33
2019-05-20T22:06:07.623Z,93983.88
2019-05-20T22:08:36.312Z,93985.45
2019-05-20T22:11:05.017Z,93972.63
2019-05-20T22:13:33.906Z,93963.87
2019-05-20T22:16:02.704Z,93976.80
2019-05-20T22:18:31.401Z,93978.23
2019-05-20T22:21:00.073Z,93977.67
2019-05-20T22:23:42.622Z,93988.05
2019-05-20T22:26:11.279Z,93996.98
2019-05-20T22:28:39.938Z,94003.52
2019-05-20T22:31:08.645Z,93998.94
2019-05-20T22:33:41.868Z,93991.03
2019-05-20T22:36:07.949Z,94002.91
2019-05-20T22:38:36.632Z,94007.52
2019-05-20T22:41:05.407Z,94000.63
2019-05-20T22:43:34.089Z,93993.39
2019-05-20T22:46:02.768Z,93997.49
2019-05-20T22:48:31.431Z,94006.59
2019-05-20T22:51:00.118Z,94000.63
2019-05-20T22:53:28.879Z,94001.71
2019-05-20T22:55:57.623Z,94012.11
2019-05-20T22:58:26.452Z,94004.71
2019-05-20T23:00:55.118Z,94002.50
2019-05-20T23:03:23.821Z,94008.69
2019-05-20T23:05:52.512Z,94019.84
2019-05-20T23:08:21.210Z,94025.66
2019-05-20T23:10:49.855Z,94026.02
2019-05-20T23:13:18.522Z,94020.42
2019-05-20T23:15:47.227Z,94032.08
2019-05-20T23:18:16.082Z,94028.03
2019-05-20T23:20:44.747Z,94022.88
2019-05-20T23:23:13.440Z,94013.36
2019-05-20T23:25:42.141Z,94024.65
2019-05-20T23:28:10.807Z,94018.17
2019-05-20T23:30:39.466Z,94001.03
2019-05-20T23:33:08.188Z,93991.18
2019-05-20T23:35:36.858Z,93982.10
2019-05-20T23:38:05.591Z,93985.19
2019-05-20T23:40:34.339Z,93996.48
2019-05-20T23:43:03.031Z,93991.16
2019-05-20T23:45:31.740Z,94001.99
2019-05-20T23:48:00.426Z,94002.86
2019-05-20T23:50:29.112Z,93998.54
2019-05-20T23:52:57.790Z,94001.95
2019-05-20T23:55:26.528Z,94003.52
2019-05-20T23:57:55.328Z,94013.66
